Armstrong Mills, OH

10:03 PM EDT on September 20, 2014 (GMT -0400)
Shadyside, Ohio | Change Station
CLOSE
Current Station
Personal Weather Station
Location: Shadyside, OH
Elevation: 669 ft
Nearby Weather Stations

Elev 669 ft 39.98 °N, 80.74 °W | Updated 1 second ago

Clear
Clear
68.0 °F
Feels Like 68.0 °F
N
0.0
Wind Variable Wind from South
Gusts 0.0 mph

Today
High -- | Low -- °F
--% Chance of Precip.
Yesterday
High -- | Low -- °F
Precip. -- in
7:09 AM 7:24 PM
Waning Crescent, 9% visible
Pressure 29.99 in
Visibility 10.0 miles
Clouds Clear
Dew Point 64 °F
Humidity 87%
Rainfall 0.00 in
Snow Depth Not available.
UV 0 out of 12
Pollen 4.40 out of 12
Air Quality Not available.
Flu Activity Not available.
METAR KHLG 210153Z AUTO 18008KT 10SM CLR 20/16 A2999 RMK AO2 SLP153 T02000156

More Conditions Fewer Conditions

Pressure 29.99 in
Visibility 10.0 miles
Clouds Clear
Dew Point 64 °F
Humidity 87%
Rainfall 0.00 in
Snow Depth Not available.
UV 0 out of 12
Pollen 4.40 out of 12
Air Quality Not available.
Flu Activity Not available.
METAR KHLG 210153Z AUTO 18008KT 10SM CLR 20/16 A2999 RMK AO2 SLP153 T02000156

More Conditions Fewer Conditions

10-Day Weather Forecast

Almanac

Astronomy

Sep. 20, 2014 Rise Set
Actual Time 7:09 AM EDT 7:24 PM EDT
Civil Twilight 6:42 AM EDT 7:51 PM EDT
Nautical Twilight 6:10 AM EDT 8:22 PM EDT
Astronomical Twilight 5:38 AM EDT 8:54 PM EDT
Moon 3:47 AM EDT (9/20) 5:26 PM EDT (9/20)
Length of Visible Light 13h 08m
Length of Day
12h 14m
Tomorrow will be 2m 37s shorter.
Waning Crescent, 9% of the Moon is Illuminated
Today
Waning Crescent
Sep 24
New
Oct 1
First Quarter
Oct 8
Full
Oct 15
Last Quarter

Today's Extremes

State Highs State Lows

Community

WunderPhotos

Upload Photos

1,755,032 photos uploaded!

WunderBlogs® & News

Nearby

Snow Depth

Station Depth Elevation
No new snow has been reported.

Earthquake Activity

City Distance Mag. Time & Date
No recent earthquake activity has been reported nearby.
Minimum magnitude displayed is 2.5.

Coastal Water Temperatures

Place Temperature
No Stations Reporting

Nearby Weather Stations